sensor_id;sensor_type;location;lat;lon;timestamp;temperature;humidity
24730;DHT22;12832;52.392;13.066;2022-08-01T00:00:04;30.00;38.30
24730;DHT22;12832;52.392;13.066;2022-08-01T00:02:31;30.00;38.30
24730;DHT22;12832;52.392;13.066;2022-08-01T00:04:58;30.00;38.30
24730;DHT22;12832;52.392;13.066;2022-08-01T00:07:26;29.90;38.30
24730;DHT22;12832;52.392;13.066;2022-08-01T00:09:53;30.00;38.30
24730;DHT22;12832;52.392;13.066;2022-08-01T00:12:20;30.00;38.30
24730;DHT22;12832;52.392;13.066;2022-08-01T00:14:47;30.00;38.40
24730;DHT22;12832;52.392;13.066;2022-08-01T00:17:13;30.00;38.30
24730;DHT22;12832;52.392;13.066;2022-08-01T00:19:40;30.00;38.40
24730;DHT22;12832;52.392;13.066;2022-08-01T00:22:07;30.00;38.40
24730;DHT22;12832;52.392;13.066;2022-08-01T00:24:35;30.00;38.40
24730;DHT22;12832;52.392;13.066;2022-08-01T00:27:02;30.00;38.40
24730;DHT22;12832;52.392;13.066;2022-08-01T00:29:28;30.00;38.40
24730;DHT22;12832;52.392;13.066;2022-08-01T00:32:15;30.00;38.40
24730;DHT22;12832;52.392;13.066;2022-08-01T00:34:42;30.00;38.40
24730;DHT22;12832;52.392;13.066;2022-08-01T00:37:09;30.00;38.40
24730;DHT22;12832;52.392;13.066;2022-08-01T00:39:41;30.00;38.40
24730;DHT22;12832;52.392;13.066;2022-08-01T00:42:11;30.00;38.50
24730;DHT22;12832;52.392;13.066;2022-08-01T00:44:39;30.00;38.50
24730;DHT22;12832;52.392;13.066;2022-08-01T00:47:07;30.00;38.50
24730;DHT22;12832;52.392;13.066;2022-08-01T00:49:34;30.00;38.50
24730;DHT22;12832;52.392;13.066;2022-08-01T00:52:03;30.00;38.50
24730;DHT22;12832;52.392;13.066;2022-08-01T00:54:32;30.00;38.50
24730;DHT22;12832;52.392;13.066;2022-08-01T00:56:59;30.00;38.50
24730;DHT22;12832;52.392;13.066;2022-08-01T00:59:26;30.00;38.50
24730;DHT22;12832;52.392;13.066;2022-08-01T01:01:53;30.00;38.50
24730;DHT22;12832;52.392;13.066;2022-08-01T01:04:21;30.00;38.60
24730;DHT22;12832;52.392;13.066;2022-08-01T01:09:52;30.00;38.60
24730;DHT22;12832;52.392;13.066;2022-08-01T01:13:18;30.00;38.60
24730;DHT22;12832;52.392;13.066;2022-08-01T01:18:17;30.00;38.60
24730;DHT22;12832;52.392;13.066;2022-08-01T01:20:48;30.00;38.60
24730;DHT22;12832;52.392;13.066;2022-08-01T01:23:44;30.00;38.60
24730;DHT22;12832;52.392;13.066;2022-08-01T01:31:50;30.00;38.70
24730;DHT22;12832;52.392;13.066;2022-08-01T01:34:20;30.00;38.60
24730;DHT22;12832;52.392;13.066;2022-08-01T01:36:50;30.00;38.60
24730;DHT22;12832;52.392;13.066;2022-08-01T01:39:20;30.00;38.60
24730;DHT22;12832;52.392;13.066;2022-08-01T01:41:48;30.00;38.70
24730;DHT22;12832;52.392;13.066;2022-08-01T01:44:16;30.00;38.70
24730;DHT22;12832;52.392;13.066;2022-08-01T01:46:44;30.00;38.70
24730;DHT22;12832;52.392;13.066;2022-08-01T01:49:12;30.00;38.70
24730;DHT22;12832;52.392;13.066;2022-08-01T01:51:42;30.00;38.70
24730;DHT22;12832;52.392;13.066;2022-08-01T01:54:30;30.00;38.70
24730;DHT22;12832;52.392;13.066;2022-08-01T01:56:59;30.00;38.70
24730;DHT22;12832;52.392;13.066;2022-08-01T01:59:30;30.00;38.70
24730;DHT22;12832;52.392;13.066;2022-08-01T02:02:00;30.00;38.70
24730;DHT22;12832;52.392;13.066;2022-08-01T02:04:35;30.00;38.80
24730;DHT22;12832;52.392;13.066;2022-08-01T02:07:03;30.00;38.80
24730;DHT22;12832;52.392;13.066;2022-08-01T02:09:31;30.00;38.70
24730;DHT22;12832;52.392;13.066;2022-08-01T02:11:59;30.00;39.40
24730;DHT22;12832;52.392;13.066;2022-08-01T02:14:34;30.00;38.80
24730;DHT22;12832;52.392;13.066;2022-08-01T02:17:02;30.00;38.80
24730;DHT22;12832;52.392;13.066;2022-08-01T02:19:32;30.00;38.80
24730;DHT22;12832;52.392;13.066;2022-08-01T02:22:11;30.00;38.90
24730;DHT22;12832;52.392;13.066;2022-08-01T02:27:33;30.00;38.90
24730;DHT22;12832;52.392;13.066;2022-08-01T02:30:04;30.00;38.90
24730;DHT22;12832;52.392;13.066;2022-08-01T02:32:49;30.00;38.80
24730;DHT22;12832;52.392;13.066;2022-08-01T02:35:27;30.00;38.80
24730;DHT22;12832;52.392;13.066;2022-08-01T02:37:55;30.00;38.90
24730;DHT22;12832;52.392;13.066;2022-08-01T02:40:22;30.00;38.90
24730;DHT22;12832;52.392;13.066;2022-08-01T02:42:52;30.00;38.90
24730;DHT22;12832;52.392;13.066;2022-08-01T02:45:25;30.00;38.90
24730;DHT22;12832;52.392;13.066;2022-08-01T02:47:56;30.00;38.90
24730;DHT22;12832;52.392;13.066;2022-08-01T02:50:25;30.00;38.90
24730;DHT22;12832;52.392;13.066;2022-08-01T02:52:54;30.00;38.90
24730;DHT22;12832;52.392;13.066;2022-08-01T02:55:22;30.00;39.00
24730;DHT22;12832;52.392;13.066;2022-08-01T02:57:51;30.00;38.90
24730;DHT22;12832;52.392;13.066;2022-08-01T03:00:28;30.00;38.90
24730;DHT22;12832;52.392;13.066;2022-08-01T03:02:57;30.00;38.90
24730;DHT22;12832;52.392;13.066;2022-08-01T03:05:24;30.00;38.90
24730;DHT22;12832;52.392;13.066;2022-08-01T03:07:54;30.00;38.90
24730;DHT22;12832;52.392;13.066;2022-08-01T03:10:29;30.00;38.90
24730;DHT22;12832;52.392;13.066;2022-08-01T03:12:58;30.00;38.90
24730;DHT22;12832;52.392;13.066;2022-08-01T03:15:28;30.00;38.90
24730;DHT22;12832;52.392;13.066;2022-08-01T03:17:57;30.00;39.00
24730;DHT22;12832;52.392;13.066;2022-08-01T03:20:27;30.00;38.90
24730;DHT22;12832;52.392;13.066;2022-08-01T03:22:57;30.00;39.00
24730;DHT22;12832;52.392;13.066;2022-08-01T03:25:27;30.00;38.90
24730;DHT22;12832;52.392;13.066;2022-08-01T03:27:58;29.90;38.90
24730;DHT22;12832;52.392;13.066;2022-08-01T03:30:26;30.00;39.00
24730;DHT22;12832;52.392;13.066;2022-08-01T03:32:54;30.00;39.00
24730;DHT22;12832;52.392;13.066;2022-08-01T03:35:24;30.00;39.00
24730;DHT22;12832;52.392;13.066;2022-08-01T03:37:54;30.00;39.00
24730;DHT22;12832;52.392;13.066;2022-08-01T03:40:49;30.00;39.00
24730;DHT22;12832;52.392;13.066;2022-08-01T03:43:22;30.00;39.10
24730;DHT22;12832;52.392;13.066;2022-08-01T03:45:54;30.00;39.10
24730;DHT22;12832;52.392;13.066;2022-08-01T03:48:28;30.00;39.10
24730;DHT22;12832;52.392;13.066;2022-08-01T03:50:58;30.00;39.20
24730;DHT22;12832;52.392;13.066;2022-08-01T03:53:29;30.00;39.20
24730;DHT22;12832;52.392;13.066;2022-08-01T03:55:59;30.00;39.20
24730;DHT22;12832;52.392;13.066;2022-08-01T03:58:28;30.00;39.20
24730;DHT22;12832;52.392;13.066;2022-08-01T04:00:57;30.00;39.20
24730;DHT22;12832;52.392;13.066;2022-08-01T04:03:24;30.10;39.20
24730;DHT22;12832;52.392;13.066;2022-08-01T04:05:51;30.10;38.80
24730;DHT22;12832;52.392;13.066;2022-08-01T04:08:19;30.00;39.00
24730;DHT22;12832;52.392;13.066;2022-08-01T04:10:45;30.00;39.10
24730;DHT22;12832;52.392;13.066;2022-08-01T04:13:15;30.00;39.20
24730;DHT22;12832;52.392;13.066;2022-08-01T04:15:42;30.00;39.20
24730;DHT22;12832;52.392;13.066;2022-08-01T04:18:09;30.00;39.30
24730;DHT22;12832;52.392;13.066;2022-08-01T04:20:36;30.00;39.20
24730;DHT22;12832;52.392;13.066;2022-08-01T04:23:03;30.00;39.20
24730;DHT22;12832;52.392;13.066;2022-08-01T04:25:33;30.00;39.20
24730;DHT22;12832;52.392;13.066;2022-08-01T04:28:02;30.00;39.30
24730;DHT22;12832;52.392;13.066;2022-08-01T04:30:33;30.00;39.30
24730;DHT22;12832;52.392;13.066;2022-08-01T04:33:02;30.10;41.20
24730;DHT22;12832;52.392;13.066;2022-08-01T04:35:32;30.10;43.40
24730;DHT22;12832;52.392;13.066;2022-08-01T04:38:23;30.10;44.70
24730;DHT22;12832;52.392;13.066;2022-08-01T04:40:54;30.00;45.30
24730;DHT22;12832;52.392;13.066;2022-08-01T04:43:21;30.00;45.60
24730;DHT22;12832;52.392;13.066;2022-08-01T04:45:51;30.00;44.00
24730;DHT22;12832;52.392;13.066;2022-08-01T04:48:18;29.90;43.00
24730;DHT22;12832;52.392;13.066;2022-08-01T04:50:48;29.90;42.60
24730;DHT22;12832;52.392;13.066;2022-08-01T04:53:17;29.90;42.40
24730;DHT22;12832;52.392;13.066;2022-08-01T04:55:45;29.90;42.50
24730;DHT22;12832;52.392;13.066;2022-08-01T04:58:15;29.80;42.40
24730;DHT22;12832;52.392;13.066;2022-08-01T05:00:45;29.90;43.80
24730;DHT22;12832;52.392;13.066;2022-08-01T05:03:12;29.90;45.90
24730;DHT22;12832;52.392;13.066;2022-08-01T05:05:39;29.90;46.50
24730;DHT22;12832;52.392;13.066;2022-08-01T05:08:06;29.90;45.90
24730;DHT22;12832;52.392;13.066;2022-08-01T05:10:33;29.90;47.30
24730;DHT22;12832;52.392;13.066;2022-08-01T05:13:00;29.90;47.40
24730;DHT22;12832;52.392;13.066;2022-08-01T05:15:27;29.90;47.20
24730;DHT22;12832;52.392;13.066;2022-08-01T05:17:54;29.90;47.30
24730;DHT22;12832;52.392;13.066;2022-08-01T05:20:21;29.90;47.70
24730;DHT22;12832;52.392;13.066;2022-08-01T05:22:48;29.90;48.60
24730;DHT22;12832;52.392;13.066;2022-08-01T05:25:15;29.80;48.60
24730;DHT22;12832;52.392;13.066;2022-08-01T05:27:46;29.80;48.60
24730;DHT22;12832;52.392;13.066;2022-08-01T05:30:17;29.80;49.00
24730;DHT22;12832;52.392;13.066;2022-08-01T05:32:44;29.80;49.00
24730;DHT22;12832;52.392;13.066;2022-08-01T05:35:11;29.80;49.10
24730;DHT22;12832;52.392;13.066;2022-08-01T05:37:38;29.80;49.10
24730;DHT22;12832;52.392;13.066;2022-08-01T05:40:05;29.80;49.20
24730;DHT22;12832;52.392;13.066;2022-08-01T05:42:32;29.80;46.90
24730;DHT22;12832;52.392;13.066;2022-08-01T05:44:59;29.80;48.30
24730;DHT22;12832;52.392;13.066;2022-08-01T05:47:26;29.80;46.90
24730;DHT22;12832;52.392;13.066;2022-08-01T05:49:53;29.80;48.40
24730;DHT22;12832;52.392;13.066;2022-08-01T05:52:20;29.80;49.00
24730;DHT22;12832;52.392;13.066;2022-08-01T05:54:46;29.80;48.70
24730;DHT22;12832;52.392;13.066;2022-08-01T05:57:13;29.80;48.20
24730;DHT22;12832;52.392;13.066;2022-08-01T05:59:40;29.80;46.30
24730;DHT22;12832;52.392;13.066;2022-08-01T06:02:07;29.80;45.90
24730;DHT22;12832;52.392;13.066;2022-08-01T06:04:35;29.80;45.70
24730;DHT22;12832;52.392;13.066;2022-08-01T06:07:02;29.80;45.60
24730;DHT22;12832;52.392;13.066;2022-08-01T06:09:29;29.80;45.70
24730;DHT22;12832;52.392;13.066;2022-08-01T06:11:57;29.70;45.70
24730;DHT22;12832;52.392;13.066;2022-08-01T06:14:24;29.70;45.70
24730;DHT22;12832;52.392;13.066;2022-08-01T06:16:51;29.70;45.70
24730;DHT22;12832;52.392;13.066;2022-08-01T06:19:18;29.70;45.90
24730;DHT22;12832;52.392;13.066;2022-08-01T06:21:45;29.70;46.00
24730;DHT22;12832;52.392;13.066;2022-08-01T06:24:12;29.70;46.10
24730;DHT22;12832;52.392;13.066;2022-08-01T06:26:38;29.60;46.10
24730;DHT22;12832;52.392;13.066;2022-08-01T06:29:05;29.60;46.10
24730;DHT22;12832;52.392;13.066;2022-08-01T06:31:35;29.70;46.40
24730;DHT22;12832;52.392;13.066;2022-08-01T06:34:02;29.60;46.30
24730;DHT22;12832;52.392;13.066;2022-08-01T06:36:29;29.60;46.40
24730;DHT22;12832;52.392;13.066;2022-08-01T06:38:56;29.60;46.40
24730;DHT22;12832;52.392;13.066;2022-08-01T06:41:22;29.70;46.60
24730;DHT22;12832;52.392;13.066;2022-08-01T06:43:50;29.60;46.60
24730;DHT22;12832;52.392;13.066;2022-08-01T06:46:16;29.60;46.70
24730;DHT22;12832;52.392;13.066;2022-08-01T06:48:43;29.60;46.60
24730;DHT22;12832;52.392;13.066;2022-08-01T06:51:10;29.60;46.80
24730;DHT22;12832;52.392;13.066;2022-08-01T06:53:41;29.60;46.70
24730;DHT22;12832;52.392;13.066;2022-08-01T06:56:10;29.60;46.80
24730;DHT22;12832;52.392;13.066;2022-08-01T06:58:37;29.60;46.80
24730;DHT22;12832;52.392;13.066;2022-08-01T07:01:05;29.60;46.80
24730;DHT22;12832;52.392;13.066;2022-08-01T07:03:35;29.60;46.80
24730;DHT22;12832;52.392;13.066;2022-08-01T07:06:21;29.60;46.80
24730;DHT22;12832;52.392;13.066;2022-08-01T07:08:48;29.60;46.90
24730;DHT22;12832;52.392;13.066;2022-08-01T07:11:15;29.60;47.10
24730;DHT22;12832;52.392;13.066;2022-08-01T07:13:42;29.60;47.10
24730;DHT22;12832;52.392;13.066;2022-08-01T07:16:12;29.60;47.20
24730;DHT22;12832;52.392;13.066;2022-08-01T07:18:39;29.60;47.20
24730;DHT22;12832;52.392;13.066;2022-08-01T07:21:07;29.60;47.30
24730;DHT22;12832;52.392;13.066;2022-08-01T07:23:54;29.60;47.30
24730;DHT22;12832;52.392;13.066;2022-08-01T07:26:22;29.50;47.40
24730;DHT22;12832;52.392;13.066;2022-08-01T07:28:49;29.50;47.50
24730;DHT22;12832;52.392;13.066;2022-08-01T07:31:16;29.60;47.50
24730;DHT22;12832;52.392;13.066;2022-08-01T07:33:43;29.60;47.60
24730;DHT22;12832;52.392;13.066;2022-08-01T07:36:18;29.60;47.50
24730;DHT22;12832;52.392;13.066;2022-08-01T07:38:45;29.50;47.60
24730;DHT22;12832;52.392;13.066;2022-08-01T07:41:12;29.50;47.70
24730;DHT22;12832;52.392;13.066;2022-08-01T07:43:39;29.50;47.60
24730;DHT22;12832;52.392;13.066;2022-08-01T07:46:11;29.60;47.80
24730;DHT22;12832;52.392;13.066;2022-08-01T07:48:37;29.50;47.70
24730;DHT22;12832;52.392;13.066;2022-08-01T07:51:05;29.50;47.80
24730;DHT22;12832;52.392;13.066;2022-08-01T07:53:32;29.50;47.80
24730;DHT22;12832;52.392;13.066;2022-08-01T07:55:58;29.50;47.90
24730;DHT22;12832;52.392;13.066;2022-08-01T07:58:26;29.60;47.90
24730;DHT22;12832;52.392;13.066;2022-08-01T08:00:53;29.50;48.00
24730;DHT22;12832;52.392;13.066;2022-08-01T08:03:19;29.50;48.00
24730;DHT22;12832;52.392;13.066;2022-08-01T08:05:46;29.50;48.00
24730;DHT22;12832;52.392;13.066;2022-08-01T08:08:26;29.50;48.10
24730;DHT22;12832;52.392;13.066;2022-08-01T08:10:53;29.50;48.00
24730;DHT22;12832;52.392;13.066;2022-08-01T08:13:20;29.50;48.00
24730;DHT22;12832;52.392;13.066;2022-08-01T08:15:47;29.50;48.10
24730;DHT22;12832;52.392;13.066;2022-08-01T08:18:15;29.50;48.10
24730;DHT22;12832;52.392;13.066;2022-08-01T08:20:42;29.50;48.10
24730;DHT22;12832;52.392;13.066;2022-08-01T08:23:09;29.50;48.10
24730;DHT22;12832;52.392;13.066;2022-08-01T08:26:09;29.50;48.10
24730;DHT22;12832;52.392;13.066;2022-08-01T08:28:37;29.50;48.10
24730;DHT22;12832;52.392;13.066;2022-08-01T08:31:06;29.50;48.00
24730;DHT22;12832;52.392;13.066;2022-08-01T08:33:53;29.50;48.10
24730;DHT22;12832;52.392;13.066;2022-08-01T08:36:19;29.50;48.10
24730;DHT22;12832;52.392;13.066;2022-08-01T08:38:47;29.50;48.00
24730;DHT22;12832;52.392;13.066;2022-08-01T08:41:14;29.50;48.10
24730;DHT22;12832;52.392;13.066;2022-08-01T08:43:46;29.50;48.10
24730;DHT22;12832;52.392;13.066;2022-08-01T08:46:14;29.50;48.10
24730;DHT22;12832;52.392;13.066;2022-08-01T08:48:41;29.50;48.10
24730;DHT22;12832;52.392;13.066;2022-08-01T08:51:10;29.50;48.10
24730;DHT22;12832;52.392;13.066;2022-08-01T08:53:41;29.50;48.00
24730;DHT22;12832;52.392;13.066;2022-08-01T08:56:13;29.50;48.10
24730;DHT22;12832;52.392;13.066;2022-08-01T08:58:45;29.50;48.00
24730;DHT22;12832;52.392;13.066;2022-08-01T09:01:12;29.50;48.00
24730;DHT22;12832;52.392;13.066;2022-08-01T09:03:40;29.50;48.00
24730;DHT22;12832;52.392;13.066;2022-08-01T09:06:07;29.50;48.00
24730;DHT22;12832;52.392;13.066;2022-08-01T09:08:34;29.50;47.90
24730;DHT22;12832;52.392;13.066;2022-08-01T09:11:02;29.50;47.90
24730;DHT22;12832;52.392;13.066;2022-08-01T09:13:29;29.50;47.80
24730;DHT22;12832;52.392;13.066;2022-08-01T09:15:56;29.50;47.80
24730;DHT22;12832;52.392;13.066;2022-08-01T09:18:33;29.50;47.80
24730;DHT22;12832;52.392;13.066;2022-08-01T09:21:17;29.50;47.80
24730;DHT22;12832;52.392;13.066;2022-08-01T09:23:50;29.50;47.80
24730;DHT22;12832;52.392;13.066;2022-08-01T09:26:35;29.50;47.80
24730;DHT22;12832;52.392;13.066;2022-08-01T09:29:05;29.50;47.80
24730;DHT22;12832;52.392;13.066;2022-08-01T09:31:40;29.50;47.80
24730;DHT22;12832;52.392;13.066;2022-08-01T09:34:14;29.50;47.80
24730;DHT22;12832;52.392;13.066;2022-08-01T09:36:53;29.40;47.70
24730;DHT22;12832;52.392;13.066;2022-08-01T09:39:26;29.50;47.70
24730;DHT22;12832;52.392;13.066;2022-08-01T09:41:54;29.50;47.70
24730;DHT22;12832;52.392;13.066;2022-08-01T09:44:44;29.50;47.70
24730;DHT22;12832;52.392;13.066;2022-08-01T09:47:20;29.40;47.60
24730;DHT22;12832;52.392;13.066;2022-08-01T09:49:55;29.50;47.60
24730;DHT22;12832;52.392;13.066;2022-08-01T09:52:26;29.40;47.50
24730;DHT22;12832;52.392;13.066;2022-08-01T09:55:12;29.50;47.60
24730;DHT22;12832;52.392;13.066;2022-08-01T09:57:56;29.40;47.50
24730;DHT22;12832;52.392;13.066;2022-08-01T10:00:27;29.40;47.50
24730;DHT22;12832;52.392;13.066;2022-08-01T10:05:47;29.40;47.50
24730;DHT22;12832;52.392;13.066;2022-08-01T10:08:15;29.40;47.50
24730;DHT22;12832;52.392;13.066;2022-08-01T10:11:08;29.40;47.40
24730;DHT22;12832;52.392;13.066;2022-08-01T10:13:38;29.40;47.40
24730;DHT22;12832;52.392;13.066;2022-08-01T10:16:06;29.40;47.30
24730;DHT22;12832;52.392;13.066;2022-08-01T10:18:35;29.40;47.40
24730;DHT22;12832;52.392;13.066;2022-08-01T10:21:04;29.40;47.30
24730;DHT22;12832;52.392;13.066;2022-08-01T10:23:37;29.40;47.30
24730;DHT22;12832;52.392;13.066;2022-08-01T10:26:07;29.40;47.30
24730;DHT22;12832;52.392;13.066;2022-08-01T10:28:35;29.40;47.30
24730;DHT22;12832;52.392;13.066;2022-08-01T10:31:06;29.40;47.30
24730;DHT22;12832;52.392;13.066;2022-08-01T10:33:40;29.40;47.20
24730;DHT22;12832;52.392;13.066;2022-08-01T10:36:21;29.40;47.30
24730;DHT22;12832;52.392;13.066;2022-08-01T10:38:52;29.40;47.20
24730;DHT22;12832;52.392;13.066;2022-08-01T10:41:21;29.40;47.20
24730;DHT22;12832;52.392;13.066;2022-08-01T10:43:48;29.40;47.10
24730;DHT22;12832;52.392;13.066;2022-08-01T10:46:18;29.40;47.10
24730;DHT22;12832;52.392;13.066;2022-08-01T10:48:56;29.40;47.80
24730;DHT22;12832;52.392;13.066;2022-08-01T10:51:27;29.40;47.10
24730;DHT22;12832;52.392;13.066;2022-08-01T10:54:14;29.40;47.10
24730;DHT22;12832;52.392;13.066;2022-08-01T10:56:46;29.40;47.00
24730;DHT22;12832;52.392;13.066;2022-08-01T10:59:21;29.40;47.00
24730;DHT22;12832;52.392;13.066;2022-08-01T11:02:08;29.40;47.00
24730;DHT22;12832;52.392;13.066;2022-08-01T11:04:54;29.40;46.90
24730;DHT22;12832;52.392;13.066;2022-08-01T11:07:24;29.40;47.00
24730;DHT22;12832;52.392;13.066;2022-08-01T11:10:16;29.40;47.00
24730;DHT22;12832;52.392;13.066;2022-08-01T11:12:50;29.40;47.00
24730;DHT22;12832;52.392;13.066;2022-08-01T11:15:18;29.40;47.00
24730;DHT22;12832;52.392;13.066;2022-08-01T11:17:57;29.30;46.90
24730;DHT22;12832;52.392;13.066;2022-08-01T11:20:34;29.40;47.00
24730;DHT22;12832;52.392;13.066;2022-08-01T11:28:25;29.40;47.00
24730;DHT22;12832;52.392;13.066;2022-08-01T11:38:49;29.30;47.10
24730;DHT22;12832;52.392;13.066;2022-08-01T11:41:25;29.30;47.10
24730;DHT22;12832;52.392;13.066;2022-08-01T11:44:09;29.30;47.10
24730;DHT22;12832;52.392;13.066;2022-08-01T11:49:42;29.40;47.20
24730;DHT22;12832;52.392;13.066;2022-08-01T11:52:25;29.30;47.20
24730;DHT22;12832;52.392;13.066;2022-08-01T11:57:28;29.30;47.20
24730;DHT22;12832;52.392;13.066;2022-08-01T12:00:14;29.30;47.20
24730;DHT22;12832;52.392;13.066;2022-08-01T12:02:47;29.30;47.20
24730;DHT22;12832;52.392;13.066;2022-08-01T12:05:26;29.30;47.20
24730;DHT22;12832;52.392;13.066;2022-08-01T12:07:54;29.30;47.20
24730;DHT22;12832;52.392;13.066;2022-08-01T12:10:34;29.30;47.20
24730;DHT22;12832;52.392;13.066;2022-08-01T12:13:15;29.30;47.20
24730;DHT22;12832;52.392;13.066;2022-08-01T12:15:44;29.30;47.20
24730;DHT22;12832;52.392;13.066;2022-08-01T12:18:13;29.30;47.20
24730;DHT22;12832;52.392;13.066;2022-08-01T12:20:42;29.30;47.20
24730;DHT22;12832;52.392;13.066;2022-08-01T12:23:23;29.30;47.20
24730;DHT22;12832;52.392;13.066;2022-08-01T12:25:53;29.30;47.20
24730;DHT22;12832;52.392;13.066;2022-08-01T12:28:20;29.30;47.20
24730;DHT22;12832;52.392;13.066;2022-08-01T12:30:48;29.30;47.20
24730;DHT22;12832;52.392;13.066;2022-08-01T12:33:18;29.30;47.10
24730;DHT22;12832;52.392;13.066;2022-08-01T12:35:45;29.30;47.10
24730;DHT22;12832;52.392;13.066;2022-08-01T12:38:16;29.30;47.80
24730;DHT22;12832;52.392;13.066;2022-08-01T12:40:45;29.30;47.20
24730;DHT22;12832;52.392;13.066;2022-08-01T12:43:18;29.30;47.20
24730;DHT22;12832;52.392;13.066;2022-08-01T12:45:56;29.30;47.20
24730;DHT22;12832;52.392;13.066;2022-08-01T12:48:25;29.30;47.20
24730;DHT22;12832;52.392;13.066;2022-08-01T12:50:52;29.30;47.20
24730;DHT22;12832;52.392;13.066;2022-08-01T12:53:20;29.30;47.20
24730;DHT22;12832;52.392;13.066;2022-08-01T12:55:50;29.30;47.20
24730;DHT22;12832;52.392;13.066;2022-08-01T12:58:31;29.30;47.20
24730;DHT22;12832;52.392;13.066;2022-08-01T13:01:08;29.30;47.20
24730;DHT22;12832;52.392;13.066;2022-08-01T13:03:35;29.30;47.20
24730;DHT22;12832;52.392;13.066;2022-08-01T13:06:13;29.30;47.20
24730;DHT22;12832;52.392;13.066;2022-08-01T13:08:43;29.20;47.20
24730;DHT22;12832;52.392;13.066;2022-08-01T13:11:12;29.20;47.20
24730;DHT22;12832;52.392;13.066;2022-08-01T13:13:43;29.20;47.20
24730;DHT22;12832;52.392;13.066;2022-08-01T13:16:11;29.30;47.30
24730;DHT22;12832;52.392;13.066;2022-08-01T13:18:58;29.20;47.20
24730;DHT22;12832;52.392;13.066;2022-08-01T13:21:27;29.30;47.20
24730;DHT22;12832;52.392;13.066;2022-08-01T13:27:01;29.30;47.20
24730;DHT22;12832;52.392;13.066;2022-08-01T13:29:35;29.30;47.20
24730;DHT22;12832;52.392;13.066;2022-08-01T13:32:18;29.20;47.00
24730;DHT22;12832;52.392;13.066;2022-08-01T13:35:03;29.20;47.00
24730;DHT22;12832;52.392;13.066;2022-08-01T13:37:30;29.20;47.00
24730;DHT22;12832;52.392;13.066;2022-08-01T13:39:58;29.30;47.00
24730;DHT22;12832;52.392;13.066;2022-08-01T13:42:25;29.20;46.90
24730;DHT22;12832;52.392;13.066;2022-08-01T13:44:52;29.20;46.80
24730;DHT22;12832;52.392;13.066;2022-08-01T13:47:19;29.20;46.80
24730;DHT22;12832;52.392;13.066;2022-08-01T13:49:58;29.30;46.80
24730;DHT22;12832;52.392;13.066;2022-08-01T13:52:28;29.20;46.70
24730;DHT22;12832;52.392;13.066;2022-08-01T13:54:54;29.30;46.80
24730;DHT22;12832;52.392;13.066;2022-08-01T13:57:21;29.20;46.70
24730;DHT22;12832;52.392;13.066;2022-08-01T13:59:48;29.30;46.80
24730;DHT22;12832;52.392;13.066;2022-08-01T14:02:16;29.30;46.80
24730;DHT22;12832;52.392;13.066;2022-08-01T14:04:43;29.20;46.80
24730;DHT22;12832;52.392;13.066;2022-08-01T14:07:10;29.20;46.70
24730;DHT22;12832;52.392;13.066;2022-08-01T14:09:42;29.30;46.80
24730;DHT22;12832;52.392;13.066;2022-08-01T14:12:28;29.20;46.80
24730;DHT22;12832;52.392;13.066;2022-08-01T14:14:55;29.20;46.80
24730;DHT22;12832;52.392;13.066;2022-08-01T14:17:23;29.20;47.50
24730;DHT22;12832;52.392;13.066;2022-08-01T14:19:50;29.20;46.90
24730;DHT22;12832;52.392;13.066;2022-08-01T14:22:16;29.20;46.80
24730;DHT22;12832;52.392;13.066;2022-08-01T14:24:43;29.20;46.80
24730;DHT22;12832;52.392;13.066;2022-08-01T14:27:11;29.20;46.80
24730;DHT22;12832;52.392;13.066;2022-08-01T14:29:38;29.20;47.50
24730;DHT22;12832;52.392;13.066;2022-08-01T14:32:24;29.20;46.80
24730;DHT22;12832;52.392;13.066;2022-08-01T14:34:55;29.20;46.80
24730;DHT22;12832;52.392;13.066;2022-08-01T14:37:23;29.30;46.80
24730;DHT22;12832;52.392;13.066;2022-08-01T14:39:56;29.20;46.80
24730;DHT22;12832;52.392;13.066;2022-08-01T14:42:24;29.20;46.80
24730;DHT22;12832;52.392;13.066;2022-08-01T14:44:52;29.20;46.90
24730;DHT22;12832;52.392;13.066;2022-08-01T14:47:18;29.20;46.90
24730;DHT22;12832;52.392;13.066;2022-08-01T14:49:49;29.20;46.90
24730;DHT22;12832;52.392;13.066;2022-08-01T14:52:16;29.20;46.90
24730;DHT22;12832;52.392;13.066;2022-08-01T14:54:43;29.20;46.90
24730;DHT22;12832;52.392;13.066;2022-08-01T14:57:10;29.20;46.90
24730;DHT22;12832;52.392;13.066;2022-08-01T14:59:37;29.20;46.90
24730;DHT22;12832;52.392;13.066;2022-08-01T15:02:04;29.20;46.90
24730;DHT22;12832;52.392;13.066;2022-08-01T15:04:31;29.20;47.00
24730;DHT22;12832;52.392;13.066;2022-08-01T15:06:58;29.20;47.00
24730;DHT22;12832;52.392;13.066;2022-08-01T15:09:25;29.20;47.00
24730;DHT22;12832;52.392;13.066;2022-08-01T15:11:51;29.20;47.00
24730;DHT22;12832;52.392;13.066;2022-08-01T15:14:18;29.20;47.00
24730;DHT22;12832;52.392;13.066;2022-08-01T15:17:04;29.20;47.00
24730;DHT22;12832;52.392;13.066;2022-08-01T15:19:31;29.20;46.90
24730;DHT22;12832;52.392;13.066;2022-08-01T15:21:58;29.20;46.90
24730;DHT22;12832;52.392;13.066;2022-08-01T15:24:27;29.20;46.90
24730;DHT22;12832;52.392;13.066;2022-08-01T15:26:54;29.20;47.00
24730;DHT22;12832;52.392;13.066;2022-08-01T15:29:20;29.20;47.00
24730;DHT22;12832;52.392;13.066;2022-08-01T15:31:48;29.20;46.90
24730;DHT22;12832;52.392;13.066;2022-08-01T15:34:15;29.20;46.90
24730;DHT22;12832;52.392;13.066;2022-08-01T15:36:42;29.20;47.00
24730;DHT22;12832;52.392;13.066;2022-08-01T15:39:14;29.20;47.00
24730;DHT22;12832;52.392;13.066;2022-08-01T15:41:41;29.20;47.00
24730;DHT22;12832;52.392;13.066;2022-08-01T15:44:08;29.20;47.00
24730;DHT22;12832;52.392;13.066;2022-08-01T15:46:35;29.20;47.00
24730;DHT22;12832;52.392;13.066;2022-08-01T15:49:06;29.20;47.00
24730;DHT22;12832;52.392;13.066;2022-08-01T15:51:33;29.20;47.00
24730;DHT22;12832;52.392;13.066;2022-08-01T15:54:00;29.20;47.00
24730;DHT22;12832;52.392;13.066;2022-08-01T15:56:38;29.20;47.00
24730;DHT22;12832;52.392;13.066;2022-08-01T15:59:05;29.20;47.00
24730;DHT22;12832;52.392;13.066;2022-08-01T16:01:32;29.20;46.90
24730;DHT22;12832;52.392;13.066;2022-08-01T16:03:59;29.20;46.90
24730;DHT22;12832;52.392;13.066;2022-08-01T16:06:26;29.20;46.90
24730;DHT22;12832;52.392;13.066;2022-08-01T16:08:54;29.20;46.90
24730;DHT22;12832;52.392;13.066;2022-08-01T16:11:21;29.20;46.80
24730;DHT22;12832;52.392;13.066;2022-08-01T16:13:49;29.20;46.80